Terminal Aerodrome Forecast
Issued by NWS

Home | Current Version | Previous Version | Graphics & Text | Print | Product List | Glossary On
Versions: 1 2 3 4 5 6 7 8 9 10 11 12 13 14 15 16 17
426
FTUS43 KLSX 181720
TAFSUS
TAF
KSUS 181720Z 1818/1918 29005KT P6SM BKN250
     FM190500 VRB03KT P6SM VCTS BKN080CB
     FM190800 VRB03KT P6SM BKN250=

USA.gov is the U.S. government's official web portal to all federal, state and local government web resources and services.